地図

経路データ

SID SEASON NUMBER BASIN SUBBASIN NAME ISO_TIME NATURE LAT LON WMO_WIND WMO_PRES WMO_AGENCY TRACK_TYPE DIST2LAND LANDFALL IFLAG USA_AGENCY USA_ATCF_ID USA_LAT USA_LON USA_RECORD USA_STATUS USA_WIND USA_PRES USA_SSHS USA_R34_NE USA_R34_SE USA_R34_SW USA_R34_NW USA_R50_NE USA_R50_SE USA_R50_SW USA_R50_NW USA_R64_NE USA_R64_SE USA_R64_SW USA_R64_NW USA_POCI USA_ROCI USA_RMW USA_EYE TOKYO_LAT TOKYO_LON TOKYO_GRADE TOKYO_WIND TOKYO_PRES TOKYO_R50_DIR TOKYO_R50_LONG TOKYO_R50_SHORT TOKYO_R30_DIR TOKYO_R30_LONG TOKYO_R30_SHORT TOKYO_LAND CMA_LAT CMA_LON CMA_CAT CMA_WIND CMA_PRES HKO_LAT HKO_LON HKO_CAT HKO_WIND HKO_PRES NEWDELHI_LAT NEWDELHI_LON NEWDELHI_GRADE NEWDELHI_WIND NEWDELHI_PRES NEWDELHI_CI NEWDELHI_DP NEWDELHI_POCI REUNION_LAT REUNION_LON REUNION_TYPE REUNION_WIND REUNION_PRES REUNION_TNUM REUNION_CI REUNION_RMW REUNION_R34_NE REUNION_R34_SE REUNION_R34_SW REUNION_R34_NW REUNION_R50_NE REUNION_R50_SE REUNION_R50_SW REUNION_R50_NW REUNION_R64_NE REUNION_R64_SE REUNION_R64_SW REUNION_R64_NW BOM_LAT BOM_LON BOM_TYPE BOM_WIND BOM_PRES BOM_TNUM BOM_CI BOM_RMW BOM_R34_NE BOM_R34_SE BOM_R34_SW BOM_R34_NW BOM_R50_NE BOM_R50_SE BOM_R50_SW BOM_R50_NW BOM_R64_NE BOM_R64_SE BOM_R64_SW BOM_R64_NW BOM_ROCI BOM_POCI BOM_EYE BOM_POS_METHOD BOM_PRES_METHOD NADI_LAT NADI_LON NADI_CAT NADI_WIND NADI_PRES WELLINGTON_LAT WELLINGTON_LON WELLINGTON_WIND WELLINGTON_PRES DS824_LAT DS824_LON DS824_STAGE DS824_WIND DS824_PRES TD9636_LAT TD9636_LON TD9636_STAGE TD9636_WIND TD9636_PRES TD9635_LAT TD9635_LON TD9635_WIND TD9635_PRES TD9635_ROCI NEUMANN_LAT NEUMANN_LON NEUMANN_CLASS NEUMANN_WIND NEUMANN_PRES MLC_LAT MLC_LON MLC_CLASS MLC_WIND MLC_PRES USA_GUST BOM_GUST BOM_GUST_PER REUNION_GUST REUNION_GUST_PER USA_SEAHGT USA_SEARAD_NE USA_SEARAD_SE USA_SEARAD_SW USA_SEARAD_NW STORM_SPEED STORM_DIR
1937284N15096 1937 56 NI BB NOT_NAMED 1937-10-11 00:00:00 TS 14.6000 95.6000 main 123 89 _________O____ -1 14.6000 95.6000 TC 30 7 334
1937284N15096 1937 56 NI BB NOT_NAMED 1937-10-11 03:00:00 TS 14.9033 95.4467 main 89 46 _________PO___ -1 15.0550 95.3701 TC 30 14.6000 95.6000 1 8 331
1937284N15096 1937 56 NI BB NOT_NAMED 1937-10-11 06:00:00 TS 15.3239 95.1817 main 46 10 _________OP___ -1 15.5000 95.1000 TC 30 15.0598 95.3043 1 10 326
1937284N15096 1937 56 NI BB NOT_NAMED 1937-10-11 09:00:00 TS 15.7438 94.8684 main 10 0 _________PP___ -1 15.9225 94.7650 TC 30 15.5055 95.0063 1 10 322
1937284N15096 1937 56 NI BB NOT_NAMED 1937-10-11 12:00:00 TS 16.1117 94.5526 main 0 0 _________OP___ -1 16.3000 94.4000 TC 30 15.9235 94.7052 1 10 319
1937284N15096 1937 56 NI BB NOT_NAMED 1937-10-11 15:00:00 TS 16.4612 94.2249 main 10 10 _________PO___ -1 16.6224 94.0499 TC 30 16.3000 94.4000 1 9 316
1937284N15096 1937 56 NI BB NOT_NAMED 1937-10-11 18:00:00 TS 16.7629 93.8941 main 53 53 _________OP___ -1 16.9000 93.7000 TC 30 16.6258 94.0881 1 9 312
1937284N15096 1937 56 NI BB NOT_NAMED 1937-10-11 21:00:00 TS 17.0333 93.5657 main 85 85 _________PP___ -1 17.1573 93.3723 TC 30 16.9093 93.7591 1 8 308
1937284N15096 1937 56 NI BB NOT_NAMED 1937-10-12 00:00:00 TS 17.2816 93.2003 main 135 135 _________OP___ -1 17.4000 93.0000 TC 30 17.1632 93.4006 1 9 303
1937284N15096 1937 56 NI BB NOT_NAMED 1937-10-12 03:00:00 TS 17.5288 92.7613 main 177 177 _________PO___ -1 17.6575 92.5225 TC 30 17.4000 93.0000 1 10 299
1937284N15096 1937 56 NI BB NOT_NAMED 1937-10-12 06:00:00 TS 17.7738 92.2695 main 199 199 _________OP___ -1 17.9000 92.0000 TC 30 17.6477 92.5390 1 11 296
1937284N15096 1937 56 NI BB NOT_NAMED 1937-10-12 09:00:00 TS 17.9975 91.7687 main 229 229 _________PP___ -1 18.1149 91.4999 TC 30 17.8802 92.0374 1 11 294
1937284N15096 1937 56 NI BB NOT_NAMED 1937-10-12 12:00:00 TS 18.1988 91.2586 main 268 268 _________OP___ -1 18.3000 91.0000 TC 30 18.0976 91.5171 1 10 291
1937284N15096 1937 56 NI BB NOT_NAMED 1937-10-12 15:00:00 TS 18.3750 90.7462 main 298 298 _________PO___ -1 18.4499 90.4923 TC 31 18.3000 91.0000 1 10 289
1937284N15096 1937 56 NI BB NOT_NAMED 1937-10-12 18:00:00 TS 18.5367 90.2324 main 330 323 _________OP___ -1 18.6000 90.0000 TC 32 18.4734 90.4647 1 10 289
1937284N15096 1937 56 NI BB NOT_NAMED 1937-10-12 21:00:00 TS 18.7103 89.7249 main 330 302 _________PP___ -1 18.7851 89.5050 TC 33 18.6355 89.9447 1 10 292
1937284N15096 1937 56 NI BB NOT_NAMED 1937-10-13 00:00:00 TS 18.9024 89.2887 main 302 275 _________OP___ -1 19.0000 89.1000 TC 34 18.8048 89.4774 1 8 300
1937284N15096 1937 56 NI BB NOT_NAMED 1937-10-13 03:00:00 TS 19.1174 88.9737 main 275 237 _________PO___ -1 19.2348 88.8474 TC 36 19.0000 89.1000 2 7 312
1937284N15096 1937 56 NI BB NOT_NAMED 1937-10-13 06:00:00 TS 19.3647 88.7540 main 237 207 _________OP___ -1 19.5000 88.7000 TC 39 19.2293 88.8079 2 6 325
1937284N15096 1937 56 NI BB NOT_NAMED 1937-10-13 09:00:00 TS 19.6333 88.5840 main 207 180 _________PP___ -1 19.7775 88.5551 TC 42 19.4892 88.6129 2 6 338
1937284N15096 1937 56 NI BB NOT_NAMED 1937-10-13 12:00:00 TS 19.9397 88.5057 main 180 145 _________OP___ -1 20.1000 88.5000 TC 45 19.7795 88.5113 2 7 355
1937284N15096 1937 56 NI BB NOT_NAMED 1937-10-13 15:00:00 TS 20.2962 88.5275 main 145 101 _________PO___ -1 20.4925 88.5549 TC 45 20.1000 88.5000 3 7 7
1937284N15096 1937 56 NI BB NOT_NAMED 1937-10-13 18:00:00 TS 20.6729 88.6056 main 101 70 _________OP___ -1 20.9000 88.7000 TC 45 20.4457 88.5112 3 8 14
1937284N15096 1937 56 NI BB NOT_NAMED 1937-10-13 21:00:00 TS 21.0345 88.7305 main 70 22 _________PP___ -1 21.2498 88.8478 TC 45 20.8192 88.6132 3 8 24
1937284N15096 1937 56 NI BB NOT_NAMED 1937-10-14 00:00:00 TS 21.4040 88.9543 main 22 0 _________OP___ -1 21.6000 89.1000 TC 45 21.2080 88.8085 3 9 35
1937284N15096 1937 56 NI BB NOT_NAMED 1937-10-14 03:00:00 TS 21.8000 89.3024 main 0 0 _________PO___ -1 22.0001 89.5049 TC 45 21.6000 89.1000 3 11 43
1937284N15096 1937 56 NI BB NOT_NAMED 1937-10-14 06:00:00 TS 22.1938 89.7364 main 0 0 _________OP___ -1 22.4000 90.0000 TC 45 21.9876 89.4729 3 11 48
1937284N15096 1937 56 NI BB NOT_NAMED 1937-10-14 09:00:00 TS 22.5689 90.2148 main 0 0 _________PP___ -1 22.7649 90.4927 TC 45 22.3730 89.9368 3 12 51
1937284N15096 1937 56 NI BB NOT_NAMED 1937-10-14 12:00:00 TS 22.9234 90.7287 main 0 0 _________OP___ -1 23.1000 91.0000 TC 45 22.7468 90.4575 3 12 54
1937284N15096 1937 56 NI BB NOT_NAMED 1937-10-14 15:00:00 TS 23.2536 91.2464 main 0 0 _________PO___ -1 23.4073 91.4929 TC 41 23.1000 91.0000 3 11 56
1937284N15096 1937 56 NI BB NOT_NAMED 1937-10-14 18:00:00 TS 23.5437 91.7346 main 0 0 _________OP___ -1 23.7000 92.0000 TC 37 23.4265 91.5356 3 11 58
1937284N15096 1937 56 NI BB NOT_NAMED 1937-10-14 21:00:00 TS 23.8376 92.2527 main 0 0 _________PP___ -1 23.9980 92.5394 TC 33 23.7308 92.0615 3 11 59
1937284N15096 1937 56 NI BB NOT_NAMED 1937-10-15 00:00:00 TS 24.1131 92.7545 main 0 0 _________OP___ -1 24.3000 93.1000 TC 30 24.0197 92.5817 3 9 59
1937284N15096 1937 56 NI BB NOT_NAMED 1937-10-15 03:00:00 NR 24.3000 93.1000 main 0 __________O___ -1 TC 24.3000 93.1000 1 7 59

IBTrACS Databaseについて

本データベースは、米国NOAAが公開する1842年以降の世界の熱帯低気圧のベストトラックデータアーカイブInternational Best Track Archive for Climate Stewardship (IBTrACS)を、ウェブで閲覧しやすい形式に変換したものです。

最終更新日:2021-12-03